Freeport, TX (77541)

4:53 AM CDT on May 03, 2015 (GMT -0500)
Freeport - Air Liquide | | Change Station
CLOSE
Current Station
Personal Weather Station
Location: Freeport, TX
Elevation: 10 ft
Nearby Weather Stations

Elev 10 ft 28.99 °N, 95.34 °W | Updated 25 seconds ago

Partly Cloudy
Partly Cloudy
70.8 °F
Feels Like 72 °F
N
0.0
Wind Variable Wind from SSE
Gusts 0.0 mph

Today
High -- | Low -- °F
--% Chance of Precip.
Yesterday
High -- | Low -- °F
Precip. -- in
6:38 AM 7:58 PM
Waxing Gibbous, 99% visible
Pressure 30.01 in
Visibility 9.0 miles
Clouds Few 3900 ft
Heat Index 72 °F
Dew Point 64 °F
Humidity 78%
Rainfall 0.00 in
Snow Depth Not available.
UV 0.0 out of 12
Pollen 6.60 out of 12
Air Quality Not available.
Flu Activity Sporadic
METAR KLBX 030853Z AUTO 00000KT 9SM FEW039 13/13 A3001 RMK AO2 SLP161 T01330133 56006

More Conditions Fewer Conditions

Pressure 30.01 in
Visibility 9.0 miles
Clouds Few 3900 ft
Heat Index 72 °F
Dew Point 64 °F
Humidity 78%
Rainfall 0.00 in
Snow Depth Not available.
UV 0.0 out of 12
Pollen 6.60 out of 12
Air Quality Not available.
Flu Activity Sporadic
METAR KLBX 030853Z AUTO 00000KT 9SM FEW039 13/13 A3001 RMK AO2 SLP161 T01330133 56006

More Conditions Fewer Conditions

Nepal has a long way to go to dig out and rebuild from a devastating earthquake. We have teamed up with several charities and organizations to make contributing to the relief effort as easy as possible.
How you can help: Portlight Strategies | Red Cross

10-Day Weather Forecast

Almanac

Astronomy

May. 03, 2015 Rise Set
Actual Time
Civil Twilight
Nautical Twilight
Astronomical Twilight
Moon
Length of Visible Light
Length of Day
Tomorrow will be .
, % of the Moon is Illuminated

Today's Extremes

State Highs State Lows

Community

WunderPhotos

Upload Photos

1,818,185 photos uploaded!

WunderBlogs® & News

Nearby

Air Quality

  Air Quality AQ Index Pollutant
Not available.

Snow Depth

Station Depth Elevation

Earthquake Activity

City Distance Mag. Time & Date
Minimum magnitude displayed is 2.5.

Coastal Water Temperatures

Place Temperature

Stations

Nearby Weather Stations

Station Location Temp. Windchill Dew Point Humidity Wind Precip. Elev Updated Type